Time;durP1;ratioP1;P1;durP2;ratioP2;P2;SDS_P1;SDS_P2;PMS_P1;PMS_P2;Temp;Humidity;BMP_temperature;BMP_pressure;BME280_temperature;BME280_humidity;BME280_pressure;Samples;Min_cycle;Max_cycle;Signal;HPM_P1;HPM_P2
2023/03/15 00:00:55;;;;;;;1.73;0.90;;;;;;;;;;5113862;28;20450;-74
2023/03/15 00:03:39;;;;;;;8.80;2.00;;;;;;;;;;5106121;28;20491;-74
2023/03/15 00:06:17;;;;;;;2.83;0.97;;;;;;;;;;5110111;28;20439;-73
2023/03/15 00:08:46;;;;;;;5.10;1.20;;;;;;;;;;5111191;28;20480;-73
2023/03/15 00:11:14;;;;;;;7.33;1.20;;;;;;;;;;5118099;28;20447;-73
2023/03/15 00:13:42;;;;;;;1.73;1.00;;;;;;;;;;5114531;28;20536;-73
2023/03/15 00:16:10;;;;;;;3.43;0.90;;;;;;;;;;5112511;28;20443;-73
2023/03/15 00:18:44;;;;;;;2.07;0.83;;;;;;;;;;5111910;28;20462;-73
2023/03/15 00:21:23;;;;;;;3.93;1.10;;;;;;;;;;5113262;28;20764;-73
2023/03/15 00:23:52;;;;;;;3.97;1.10;;;;;;;;;;5109054;28;20705;-73
2023/03/15 00:26:24;;;;;;;3.97;0.67;;;;;;;;;;5112653;28;20439;-73
2023/03/15 00:28:55;;;;;;;1.70;0.70;;;;;;;;;;5112518;28;20969;-73
2023/03/15 00:31:25;;;;;;;4.70;1.10;;;;;;;;;;5114040;28;20451;-73
2023/03/15 00:33:57;;;;;;;9.33;1.80;;;;;;;;;;5111683;28;20447;-73
2023/03/15 00:36:30;;;;;;;3.43;1.27;;;;;;;;;;5112309;28;20925;-73
2023/03/15 00:38:59;;;;;;;2.27;1.33;;;;;;;;;;5108929;28;20539;-73
2023/03/15 00:41:27;;;;;;;3.90;1.33;;;;;;;;;;5107116;28;20875;-73
2023/03/15 00:43:59;;;;;;;3.50;1.53;;;;;;;;;;5106704;28;20762;-73
2023/03/15 00:46:29;;;;;;;4.70;1.70;;;;;;;;;;5108709;28;20471;-72
2023/03/15 00:48:56;;;;;;;4.37;1.87;;;;;;;;;;5115372;28;20455;-73
2023/03/15 00:51:25;;;;;;;3.87;1.40;;;;;;;;;;5110379;28;20505;-73
2023/03/15 00:53:54;;;;;;;4.17;1.60;;;;;;;;;;5111822;28;20448;-74
2023/03/15 00:56:23;;;;;;;3.30;0.97;;;;;;;;;;5109501;28;20425;-73
2023/03/15 00:58:51;;;;;;;7.57;1.27;;;;;;;;;;5112574;28;20435;-73
2023/03/15 01:01:20;;;;;;;4.13;1.70;;;;;;;;;;5113725;28;20714;-72
2023/03/15 01:03:50;;;;;;;4.60;1.57;;;;;;;;;;5108703;28;20585;-73
2023/03/15 01:06:18;;;;;;;6.23;1.50;;;;;;;;;;5111844;28;20503;-72
2023/03/15 01:08:48;;;;;;;4.87;1.33;;;;;;;;;;5109765;28;20456;-73
2023/03/15 01:11:19;;;;;;;3.30;2.07;;;;;;;;;;5109089;28;20523;-73
2023/03/15 01:13:48;;;;;;;12.40;1.60;;;;;;;;;;5103544;28;20507;-73
2023/03/15 01:16:16;;;;;;;7.33;2.10;;;;;;;;;;5114170;28;20486;-73
2023/03/15 01:18:44;;;;;;;3.83;1.63;;;;;;;;;;5122160;28;20459;-73
2023/03/15 01:21:13;;;;;;;6.23;1.30;;;;;;;;;;5123980;28;20442;-73
2023/03/15 01:23:41;;;;;;;2.00;1.17;;;;;;;;;;5120623;28;20483;-73
2023/03/15 01:26:11;;;;;;;3.90;1.73;;;;;;;;;;5124860;28;20457;-73
2023/03/15 01:28:41;;;;;;;8.63;2.00;;;;;;;;;;5121253;28;20862;-73
2023/03/15 01:31:10;;;;;;;3.53;1.00;;;;;;;;;;5122910;28;20709;-72
2023/03/15 01:33:38;;;;;;;5.87;1.73;;;;;;;;;;5121560;28;20458;-73
2023/03/15 01:36:07;;;;;;;4.30;1.80;;;;;;;;;;5121495;28;20443;-74
2023/03/15 01:41:31;;;;;;;4.83;1.20;;;;;;;;;;5100047;28;20526;-73
2023/03/15 01:44:17;;;;;;;6.80;2.30;;;;;;;;;;5105968;28;20758;-74
2023/03/15 01:46:51;;;;;;;4.93;1.80;;;;;;;;;;5117323;28;20454;-73
2023/03/15 01:49:30;;;;;;;7.40;1.60;;;;;;;;;;5115256;28;20456;-72
2023/03/15 01:52:00;;;;;;;6.70;2.27;;;;;;;;;;5103316;28;20451;-73
2023/03/15 01:54:29;;;;;;;3.53;1.57;;;;;;;;;;5099906;28;20807;-73
2023/03/15 01:57:00;;;;;;;3.80;1.60;;;;;;;;;;5131595;27;20445;-73
2023/03/15 01:59:31;;;;;;;7.63;1.33;;;;;;;;;;5139698;27;20876;-73
2023/03/15 02:02:00;;;;;;;2.23;1.17;;;;;;;;;;5139576;27;20523;-73
2023/03/15 02:04:31;;;;;;;6.37;1.90;;;;;;;;;;5140248;27;20736;-74
2023/03/15 02:07:03;;;;;;;4.13;1.40;;;;;;;;;;5141050;27;20449;-74
2023/03/15 02:09:35;;;;;;;6.23;1.13;;;;;;;;;;5141809;27;20699;-73
2023/03/15 02:12:05;;;;;;;8.30;2.50;;;;;;;;;;5141630;27;20446;-73
2023/03/15 02:14:34;;;;;;;2.43;1.63;;;;;;;;;;5142017;27;20750;-72
2023/03/15 02:17:02;;;;;;;8.23;1.83;;;;;;;;;;5140373;27;20453;-73
2023/03/15 02:19:36;;;;;;;5.13;1.63;;;;;;;;;;5143197;27;20449;-73
2023/03/15 02:22:12;;;;;;;3.87;1.67;;;;;;;;;;5142163;27;20464;-72
2023/03/15 02:24:48;;;;;;;8.10;2.47;;;;;;;;;;5142790;27;20453;-73
2023/03/15 02:27:23;;;;;;;10.43;2.60;;;;;;;;;;5140241;27;20458;-73
2023/03/15 02:29:50;;;;;;;5.73;1.20;;;;;;;;;;5142318;27;20449;-72
2023/03/15 02:32:19;;;;;;;6.17;1.87;;;;;;;;;;5132001;27;20448;-72
2023/03/15 02:34:46;;;;;;;3.10;1.60;;;;;;;;;;5101862;28;20459;-72
2023/03/15 02:37:14;;;;;;;5.73;1.83;;;;;;;;;;5098959;28;20444;-72
2023/03/15 02:39:42;;;;;;;4.57;1.90;;;;;;;;;;5101052;28;20481;-73
2023/03/15 02:42:09;;;;;;;5.47;2.30;;;;;;;;;;5099673;28;20452;-71
2023/03/15 02:44:40;;;;;;;4.93;2.30;;;;;;;;;;5100326;28;20956;-73
2023/03/15 02:47:11;;;;;;;9.67;2.60;;;;;;;;;;5101764;27;20449;-72
2023/03/15 02:49:47;;;;;;;10.53;2.70;;;;;;;;;;5101032;28;20466;-72
2023/03/15 02:52:22;;;;;;;7.60;1.67;;;;;;;;;;5101321;28;20508;-72
2023/03/15 02:54:50;;;;;;;6.53;1.87;;;;;;;;;;5100688;28;20461;-73
2023/03/15 02:57:18;;;;;;;3.57;1.60;;;;;;;;;;5101117;28;20470;-72
2023/03/15 02:59:49;;;;;;;5.97;2.00;;;;;;;;;;5100912;28;20456;-73
2023/03/15 03:02:17;;;;;;;4.33;2.47;;;;;;;;;;5101387;28;20458;-72
2023/03/15 03:04:45;;;;;;;6.50;2.20;;;;;;;;;;5102811;28;20459;-73
2023/03/15 03:07:13;;;;;;;6.70;2.00;;;;;;;;;;5102343;28;20448;-73
2023/03/15 03:09:41;;;;;;;5.60;1.67;;;;;;;;;;5102833;28;20835;-73
2023/03/15 03:12:08;;;;;;;8.17;2.70;;;;;;;;;;5100763;28;20462;-72
2023/03/15 03:14:36;;;;;;;9.70;2.53;;;;;;;;;;5103757;28;20462;-73
2023/03/15 03:17:08;;;;;;;8.47;2.53;;;;;;;;;;5102184;28;20468;-73
2023/03/15 03:19:37;;;;;;;5.20;2.30;;;;;;;;;;5101677;28;20451;-73
2023/03/15 03:22:06;;;;;;;8.83;2.63;;;;;;;;;;5100609;28;20451;-73
2023/03/15 03:24:34;;;;;;;3.30;2.47;;;;;;;;;;5100190;28;20487;-73
2023/03/15 03:27:01;;;;;;;5.03;3.13;;;;;;;;;;5103540;28;20436;-73
2023/03/15 03:29:29;;;;;;;6.60;2.27;;;;;;;;;;5099280;28;20455;-73
2023/03/15 03:31:57;;;;;;;10.30;3.00;;;;;;;;;;5102318;28;20878;-73
2023/03/15 03:34:33;;;;;;;5.57;2.83;;;;;;;;;;5099997;28;20462;-73
2023/03/15 03:37:01;;;;;;;7.20;3.43;;;;;;;;;;5100839;28;20477;-73
2023/03/15 03:39:29;;;;;;;9.73;2.93;;;;;;;;;;5097349;28;20579;-73
2023/03/15 03:41:57;;;;;;;6.50;2.43;;;;;;;;;;5103944;28;20451;-72
2023/03/15 03:44:25;;;;;;;11.63;4.20;;;;;;;;;;5103542;28;20576;-72
2023/03/15 03:46:52;;;;;;;15.20;3.40;;;;;;;;;;5106379;28;20440;-73
2023/03/15 03:49:21;;;;;;;6.53;3.07;;;;;;;;;;5105844;28;20514;-73
2023/03/15 03:51:50;;;;;;;9.23;3.03;;;;;;;;;;5106422;28;20447;-73
2023/03/15 03:54:21;;;;;;;4.50;3.20;;;;;;;;;;5107643;28;20866;-72
2023/03/15 03:56:48;;;;;;;16.23;3.53;;;;;;;;;;5105546;28;20455;-73
2023/03/15 03:59:16;;;;;;;15.03;3.47;;;;;;;;;;5107818;28;20439;-73
2023/03/15 04:01:44;;;;;;;6.13;2.80;;;;;;;;;;5103526;28;20882;-73
2023/03/15 04:04:13;;;;;;;6.87;2.60;;;;;;;;;;5105644;28;20480;-73
2023/03/15 04:06:44;;;;;;;5.93;2.70;;;;;;;;;;5105087;28;20459;-73
2023/03/15 04:09:13;;;;;;;10.90;3.33;;;;;;;;;;5107446;28;20467;-73
2023/03/15 04:11:42;;;;;;;13.17;4.53;;;;;;;;;;5103751;28;20493;-72
2023/03/15 04:14:10;;;;;;;10.40;3.20;;;;;;;;;;5104739;28;20482;-73
2023/03/15 04:16:38;;;;;;;8.33;3.43;;;;;;;;;;5101595;28;20460;-72
2023/03/15 04:19:06;;;;;;;6.00;3.00;;;;;;;;;;5101104;28;20860;-73
2023/03/15 04:21:37;;;;;;;8.43;3.30;;;;;;;;;;5102078;28;20844;-74
2023/03/15 04:24:04;;;;;;;9.67;3.23;;;;;;;;;;5101525;28;20483;-73
2023/03/15 04:26:34;;;;;;;4.47;2.40;;;;;;;;;;5102069;28;20463;-73
2023/03/15 04:29:02;;;;;;;9.90;3.10;;;;;;;;;;5101244;28;20519;-73
2023/03/15 04:31:36;;;;;;;7.70;3.33;;;;;;;;;;5101856;28;20455;-74
2023/03/15 04:34:04;;;;;;;7.40;2.93;;;;;;;;;;5100683;28;20443;-74
2023/03/15 04:36:32;;;;;;;11.60;2.97;;;;;;;;;;5104244;28;20470;-73
2023/03/15 04:39:04;;;;;;;5.63;3.17;;;;;;;;;;5102502;28;20864;-72
2023/03/15 04:41:34;;;;;;;10.27;3.23;;;;;;;;;;5103520;28;21175;-73
2023/03/15 04:44:03;;;;;;;4.77;3.37;;;;;;;;;;5104114;28;20480;-74
2023/03/15 04:46:32;;;;;;;6.83;2.40;;;;;;;;;;5101762;28;20551;-74
2023/03/15 04:49:00;;;;;;;6.47;2.93;;;;;;;;;;5101702;28;20527;-72
2023/03/15 04:51:28;;;;;;;5.87;2.93;;;;;;;;;;5100879;28;20467;-72
2023/03/15 04:53:55;;;;;;;5.03;2.57;;;;;;;;;;5100481;28;20447;-73
2023/03/15 04:56:23;;;;;;;6.73;2.90;;;;;;;;;;5101941;28;20459;-73
2023/03/15 04:58:53;;;;;;;3.50;2.87;;;;;;;;;;5099776;28;20452;-73
2023/03/15 05:01:22;;;;;;;19.10;4.23;;;;;;;;;;5101978;28;20455;-73
2023/03/15 05:03:50;;;;;;;11.50;2.90;;;;;;;;;;5100807;28;20483;-72
2023/03/15 05:06:20;;;;;;;8.20;3.50;;;;;;;;;;5114286;28;20553;-73
2023/03/15 05:08:48;;;;;;;6.40;2.33;;;;;;;;;;5120961;28;20749;-73
2023/03/15 05:11:15;;;;;;;7.00;2.70;;;;;;;;;;5119648;28;20510;-73
2023/03/15 05:13:43;;;;;;;9.27;3.27;;;;;;;;;;5115048;28;20455;-73
2023/03/15 05:16:12;;;;;;;7.73;2.87;;;;;;;;;;5101925;28;20462;-72
2023/03/15 05:18:44;;;;;;;5.23;2.60;;;;;;;;;;5100671;28;20461;-72
2023/03/15 05:21:12;;;;;;;5.20;2.60;;;;;;;;;;5099584;28;20479;-72
2023/03/15 05:23:42;;;;;;;3.33;2.10;;;;;;;;;;5101768;28;20498;-72
2023/03/15 05:26:10;;;;;;;7.47;3.03;;;;;;;;;;5103109;28;20444;-73
2023/03/15 05:28:39;;;;;;;9.60;2.80;;;;;;;;;;5101355;28;20467;-72
2023/03/15 05:31:08;;;;;;;5.43;2.77;;;;;;;;;;5117184;27;20796;-72
2023/03/15 05:33:45;;;;;;;10.37;3.37;;;;;;;;;;5127092;27;20562;-72
2023/03/15 05:36:16;;;;;;;5.00;3.53;;;;;;;;;;5101078;28;20534;-72
2023/03/15 05:38:44;;;;;;;4.20;2.80;;;;;;;;;;5098566;28;20460;-73
2023/03/15 05:41:20;;;;;;;5.40;2.90;;;;;;;;;;5100798;27;20458;-72
2023/03/15 05:43:53;;;;;;;7.73;3.27;;;;;;;;;;5116599;27;20483;-73
2023/03/15 05:46:21;;;;;;;4.07;2.60;;;;;;;;;;5099952;28;20532;-72
2023/03/15 05:48:52;;;;;;;4.40;2.80;;;;;;;;;;5099301;28;20537;-71
2023/03/15 05:51:20;;;;;;;9.60;2.90;;;;;;;;;;5098966;28;20440;-73
2023/03/15 05:53:48;;;;;;;5.77;2.70;;;;;;;;;;5100814;28;20443;-73
2023/03/15 05:56:40;;;;;;;8.33;3.27;;;;;;;;;;5100604;28;20472;-72
2023/03/15 05:59:29;;;;;;;6.97;2.53;;;;;;;;;;5096170;28;20447;-71
2023/03/15 06:01:57;;;;;;;6.20;3.00;;;;;;;;;;5101355;28;20456;-71
2023/03/15 06:04:27;;;;;;;6.60;2.70;;;;;;;;;;5105888;28;20479;-73
2023/03/15 06:06:54;;;;;;;8.97;3.50;;;;;;;;;;5117561;28;20522;-72
2023/03/15 06:09:27;;;;;;;7.93;3.10;;;;;;;;;;5116675;28;20443;-73
2023/03/15 06:11:54;;;;;;;9.90;3.33;;;;;;;;;;5107767;28;20462;-72
2023/03/15 06:14:22;;;;;;;7.80;3.47;;;;;;;;;;5117968;28;20871;-73
2023/03/15 06:16:53;;;;;;;6.90;3.20;;;;;;;;;;5116458;28;20466;-73
2023/03/15 06:19:21;;;;;;;7.50;3.50;;;;;;;;;;5118054;28;20820;-73
2023/03/15 06:21:51;;;;;;;5.77;3.40;;;;;;;;;;5128601;27;20758;-73
2023/03/15 06:24:19;;;;;;;5.73;3.03;;;;;;;;;;5118535;28;20461;-72
2023/03/15 06:26:46;;;;;;;5.20;2.50;;;;;;;;;;5108383;28;20463;-72
2023/03/15 06:29:16;;;;;;;9.37;3.50;;;;;;;;;;5104063;28;20489;-73
2023/03/15 06:31:46;;;;;;;6.20;2.57;;;;;;;;;;5114849;28;20468;-73
2023/03/15 06:34:14;;;;;;;10.80;3.23;;;;;;;;;;5117145;28;20537;-74
2023/03/15 06:36:42;;;;;;;4.87;2.30;;;;;;;;;;5116996;28;20451;-71
2023/03/15 06:39:14;;;;;;;10.43;3.03;;;;;;;;;;5114635;28;20459;-73
2023/03/15 06:41:43;;;;;;;5.13;2.90;;;;;;;;;;5115705;28;20462;-73
2023/03/15 06:44:11;;;;;;;5.10;2.93;;;;;;;;;;5115189;28;20485;-72
2023/03/15 06:46:39;;;;;;;7.70;2.73;;;;;;;;;;5111015;28;20459;-72
2023/03/15 06:49:07;;;;;;;9.37;3.40;;;;;;;;;;5107933;28;20435;-73
2023/03/15 06:51:43;;;;;;;5.17;2.47;;;;;;;;;;5114315;28;20463;-73
2023/03/15 06:54:12;;;;;;;5.30;2.37;;;;;;;;;;5099705;28;20521;-75
2023/03/15 06:56:44;;;;;;;8.27;2.73;;;;;;;;;;5096622;28;20451;-73
2023/03/15 06:59:11;;;;;;;4.67;1.63;;;;;;;;;;5096636;28;20523;-73
2023/03/15 07:01:39;;;;;;;5.23;2.53;;;;;;;;;;5096569;28;20798;-72
2023/03/15 07:04:08;;;;;;;2.87;2.20;;;;;;;;;;5097050;28;20506;-72
2023/03/15 07:06:36;;;;;;;3.30;2.13;;;;;;;;;;5097849;28;20443;-72
2023/03/15 07:09:05;;;;;;;4.10;2.30;;;;;;;;;;5097571;28;20456;-71
2023/03/15 07:11:33;;;;;;;4.60;2.80;;;;;;;;;;5094962;28;20910;-73
2023/03/15 07:14:37;;;;;;;8.43;2.40;;;;;;;;;;5099173;28;20462;-72
2023/03/15 07:17:11;;;;;;;6.10;1.93;;;;;;;;;;5107300;28;20741;-71
2023/03/15 07:19:44;;;;;;;4.57;2.20;;;;;;;;;;5098958;28;20465;-72
2023/03/15 07:22:12;;;;;;;2.17;1.57;;;;;;;;;;5108201;28;20467;-71
2023/03/15 07:24:50;;;;;;;3.30;2.00;;;;;;;;;;5102032;28;20507;-72
2023/03/15 07:27:23;;;;;;;7.43;2.13;;;;;;;;;;5109231;28;20539;-71
2023/03/15 07:29:54;;;;;;;4.73;1.70;;;;;;;;;;5121849;28;21033;-72
2023/03/15 07:32:24;;;;;;;5.20;1.77;;;;;;;;;;5121380;28;20482;-72
2023/03/15 07:34:53;;;;;;;3.70;2.30;;;;;;;;;;5107231;28;20459;-72
2023/03/15 07:37:21;;;;;;;4.70;2.27;;;;;;;;;;5113851;28;20470;-72
2023/03/15 07:39:49;;;;;;;7.13;2.60;;;;;;;;;;5109346;28;20548;-72
2023/03/15 07:42:17;;;;;;;4.27;2.87;;;;;;;;;;5120863;28;20458;-72
2023/03/15 07:44:45;;;;;;;5.37;2.53;;;;;;;;;;5125629;28;20933;-72
2023/03/15 07:47:15;;;;;;;3.70;1.70;;;;;;;;;;5112191;28;20463;-72
2023/03/15 07:49:47;;;;;;;14.30;3.00;;;;;;;;;;5104877;28;20464;-72
2023/03/15 07:52:21;;;;;;;2.63;1.87;;;;;;;;;;5122508;28;20427;-73
2023/03/15 07:54:57;;;;;;;4.20;1.90;;;;;;;;;;5123417;28;21000;-72
2023/03/15 07:57:39;;;;;;;4.00;2.00;;;;;;;;;;5121572;28;20434;-72
2023/03/15 08:00:13;;;;;;;11.20;2.53;;;;;;;;;;5118949;28;20466;-73
2023/03/15 08:02:48;;;;;;;5.93;2.07;;;;;;;;;;5117116;28;20458;-71
2023/03/15 08:05:18;;;;;;;7.03;2.10;;;;;;;;;;5109478;28;20746;-71
2023/03/15 08:07:50;;;;;;;9.27;4.53;;;;;;;;;;5121320;28;20462;-71
2023/03/15 08:10:18;;;;;;;6.30;3.17;;;;;;;;;;5116001;28;20450;-71
2023/03/15 08:12:48;;;;;;;7.07;1.73;;;;;;;;;;5108977;28;20454;-71
2023/03/15 08:15:39;;;;;;;3.80;1.90;;;;;;;;;;5110556;28;20461;-72
2023/03/15 08:21:28;;;;;;;5.47;1.93;;;;;;;;;;5080642;28;20443;-74
2023/03/15 08:24:07;;;;;;;4.53;1.33;;;;;;;;;;5104682;28;20514;-70
2023/03/15 08:26:46;;;;;;;5.13;1.40;;;;;;;;;;5110431;28;20774;-70
2023/03/15 08:29:36;;;;;;;5.57;1.50;;;;;;;;;;5117795;28;20458;-72
2023/03/15 08:32:06;;;;;;;4.33;0.90;;;;;;;;;;5112904;28;20939;-73
2023/03/15 08:34:35;;;;;;;2.53;1.03;;;;;;;;;;5116874;28;20456;-71
2023/03/15 08:37:16;;;;;;;3.23;0.90;;;;;;;;;;5103488;28;20463;-72
2023/03/15 08:39:45;;;;;;;2.57;0.70;;;;;;;;;;5113206;28;20454;-73
2023/03/15 08:42:29;;;;;;;1.73;0.93;;;;;;;;;;5108614;28;20543;-72
2023/03/15 08:45:06;;;;;;;2.10;1.07;;;;;;;;;;5100941;28;20487;-72
2023/03/15 08:47:36;;;;;;;2.90;0.87;;;;;;;;;;5103948;28;20486;-73
2023/03/15 08:50:11;;;;;;;13.10;7.83;;;;;;;;;;5101822;28;20456;-72
2023/03/15 08:53:00;;;;;;;6.63;3.43;;;;;;;;;;5102948;28;20892;-72
2023/03/15 08:55:58;;;;;;;3.70;1.30;;;;;;;;;;5104267;28;20443;-71
2023/03/15 08:58:45;;;;;;;2.60;1.47;;;;;;;;;;5102570;28;20486;-71
2023/03/15 09:01:25;;;;;;;3.67;1.73;;;;;;;;;;5111686;28;20466;-72
2023/03/15 09:04:28;;;;;;;7.70;2.00;;;;;;;;;;5108946;28;20481;-72
2023/03/15 09:09:56;;;;;;;3.40;2.10;;;;;;;;;;5111318;28;20456;-71
2023/03/15 09:12:25;;;;;;;22.73;8.60;;;;;;;;;;5107803;28;20474;-70
2023/03/15 09:14:56;;;;;;;22.07;13.43;;;;;;;;;;5106948;28;20467;-71
2023/03/15 09:17:36;;;;;;;10.37;4.37;;;;;;;;;;5106145;28;20451;-70
2023/03/15 09:20:11;;;;;;;10.53;3.63;;;;;;;;;;5111978;28;20515;-71
2023/03/15 09:22:55;;;;;;;11.37;2.63;;;;;;;;;;5116026;28;20460;-71
2023/03/15 09:25:35;;;;;;;5.00;2.50;;;;;;;;;;5103377;28;20479;-72
2023/03/15 09:28:16;;;;;;;4.83;2.40;;;;;;;;;;5110687;28;20463;-73
2023/03/15 09:31:12;;;;;;;5.47;2.63;;;;;;;;;;5121411;28;20506;-72
2023/03/15 09:33:58;;;;;;;6.00;1.50;;;;;;;;;;5116526;28;20509;-72
2023/03/15 09:36:35;;;;;;;7.50;1.70;;;;;;;;;;5100772;28;20655;-71
2023/03/15 09:39:41;;;;;;;5.10;1.93;;;;;;;;;;5100875;28;20868;-72
2023/03/15 09:42:23;;;;;;;5.37;2.20;;;;;;;;;;5101602;28;20439;-71
2023/03/15 09:45:17;;;;;;;8.03;2.53;;;;;;;;;;5112827;28;20536;-72
2023/03/15 09:48:14;;;;;;;4.73;1.60;;;;;;;;;;5102479;28;20467;-72
2023/03/15 09:51:15;;;;;;;2.70;0.97;;;;;;;;;;5108571;28;20599;-71
2023/03/15 09:56:49;;;;;;;3.20;2.23;;;;;;;;;;5107858;28;20454;-73
2023/03/15 09:59:46;;;;;;;6.00;2.77;;;;;;;;;;5099487;28;20471;-72
2023/03/15 10:02:24;;;;;;;5.20;2.60;;;;;;;;;;5100778;28;20451;-73
2023/03/15 10:04:56;;;;;;;8.23;1.70;;;;;;;;;;5099604;28;20487;-73
2023/03/15 10:07:25;;;;;;;9.10;2.40;;;;;;;;;;5099503;28;20440;-72
2023/03/15 10:10:04;;;;;;;11.20;2.47;;;;;;;;;;5101029;28;20440;-72
2023/03/15 10:12:39;;;;;;;5.77;1.60;;;;;;;;;;5106673;28;20458;-70
2023/03/15 10:15:24;;;;;;;3.70;1.30;;;;;;;;;;5112285;28;20450;-71
2023/03/15 10:18:13;;;;;;;7.00;3.40;;;;;;;;;;5099035;28;20530;-71
2023/03/15 10:20:45;;;;;;;3.73;1.60;;;;;;;;;;5117371;28;20458;-71
2023/03/15 10:24:02;;;;;;;6.97;1.03;;;;;;;;;;5104798;28;20513;-70
2023/03/15 10:26:43;;;;;;;3.83;1.27;;;;;;;;;;5099422;28;20937;-72
2023/03/15 10:29:18;;;;;;;5.00;2.80;;;;;;;;;;5101894;28;20452;-71
2023/03/15 10:31:56;;;;;;;2.80;1.40;;;;;;;;;;5099091;28;20455;-72
2023/03/15 10:34:28;;;;;;;4.20;1.07;;;;;;;;;;5095269;28;20756;-71
2023/03/15 10:37:06;;;;;;;3.50;1.50;;;;;;;;;;5098550;28;20486;-71
2023/03/15 10:39:45;;;;;;;4.67;0.93;;;;;;;;;;5099452;28;20460;-69
2023/03/15 10:42:46;;;;;;;6.33;1.30;;;;;;;;;;5101582;28;20486;-73
2023/03/15 10:58:05;;;;;;;6.53;1.60;;;;;;;;;;5090592;28;20447;-73
2023/03/15 11:00:54;;;;;;;2.30;1.13;;;;;;;;;;5120984;28;20439;-72
2023/03/15 11:03:23;;;;;;;3.07;1.50;;;;;;;;;;5119660;28;20457;-72
2023/03/15 11:05:53;;;;;;;5.77;2.00;;;;;;;;;;5120379;28;20474;-72
2023/03/15 11:08:36;;;;;;;6.30;1.40;;;;;;;;;;5121756;28;20438;-72
2023/03/15 11:11:16;;;;;;;5.00;2.20;;;;;;;;;;5112089;28;20444;-73
2023/03/15 11:13:56;;;;;;;7.63;1.50;;;;;;;;;;5100874;28;20784;-71
2023/03/15 11:16:40;;;;;;;3.30;1.13;;;;;;;;;;5084307;28;20442;-71
2023/03/15 11:19:14;;;;;;;4.00;1.50;;;;;;;;;;5110524;28;20516;-71
2023/03/15 11:21:45;;;;;;;5.93;1.10;;;;;;;;;;5093481;28;20495;-72
2023/03/15 11:24:21;;;;;;;1.93;1.00;;;;;;;;;;5095435;28;20452;-71
2023/03/15 11:26:54;;;;;;;3.60;1.50;;;;;;;;;;5094804;28;20506;-74
2023/03/15 11:29:26;;;;;;;6.97;1.93;;;;;;;;;;5096297;28;20463;-72
2023/03/15 11:31:56;;;;;;;4.80;2.30;;;;;;;;;;5098149;28;20563;-72
2023/03/15 11:34:34;;;;;;;1.50;0.60;;;;;;;;;;5096628;28;20707;-72
2023/03/15 11:37:07;;;;;;;3.47;1.20;;;;;;;;;;5096302;28;20460;-72
2023/03/15 11:39:44;;;;;;;1.50;0.70;;;;;;;;;;5094468;28;20483;-72
2023/03/15 11:42:14;;;;;;;3.73;0.70;;;;;;;;;;5094883;28;20458;-72
2023/03/15 11:44:45;;;;;;;1.53;0.70;;;;;;;;;;5105461;28;20455;-72
2023/03/15 11:47:24;;;;;;;2.80;0.80;;;;;;;;;;5097060;28;20460;-73
2023/03/15 11:49:54;;;;;;;1.77;1.00;;;;;;;;;;5094627;28;20446;-72
2023/03/15 11:52:23;;;;;;;2.30;0.83;;;;;;;;;;5094237;28;20460;-72
2023/03/15 11:54:55;;;;;;;2.90;1.20;;;;;;;;;;5094060;28;20463;-74
2023/03/15 11:57:42;;;;;;;1.77;0.83;;;;;;;;;;5094289;28;20549;-72
2023/03/15 12:00:25;;;;;;;4.20;1.00;;;;;;;;;;5112971;28;20473;-73
2023/03/15 12:02:57;;;;;;;9.33;1.37;;;;;;;;;;5117672;28;20768;-72
2023/03/15 12:05:50;;;;;;;4.20;1.20;;;;;;;;;;5107537;28;20570;-70
2023/03/15 12:08:23;;;;;;;2.27;0.70;;;;;;;;;;5098200;28;20977;-72
2023/03/15 12:11:22;;;;;;;4.73;1.13;;;;;;;;;;5098613;28;20558;-73
2023/03/15 12:14:04;;;;;;;3.07;1.33;;;;;;;;;;5099340;28;20551;-72
2023/03/15 12:16:33;;;;;;;8.93;3.73;;;;;;;;;;5098186;28;20446;-72
2023/03/15 12:19:05;;;;;;;1.93;0.80;;;;;;;;;;5095395;28;20823;-72
2023/03/15 12:21:35;;;;;;;3.37;1.23;;;;;;;;;;5096252;28;20452;-72
2023/03/15 12:24:05;;;;;;;4.30;1.50;;;;;;;;;;5096328;28;20855;-72
2023/03/15 12:26:52;;;;;;;3.90;0.90;;;;;;;;;;5094754;28;20479;-73
2023/03/15 12:29:31;;;;;;;1.60;0.70;;;;;;;;;;5089523;28;20839;-73
2023/03/15 12:32:06;;;;;;;2.03;0.80;;;;;;;;;;5115251;28;20830;-73
2023/03/15 12:34:54;;;;;;;6.50;1.30;;;;;;;;;;5099613;28;20497;-73
2023/03/15 12:40:43;;;;;;;2.70;1.00;;;;;;;;;;5088973;28;20519;-71
2023/03/15 12:43:13;;;;;;;3.20;1.13;;;;;;;;;;5117395;28;20547;-72
2023/03/15 12:46:06;;;;;;;5.30;1.13;;;;;;;;;;5117598;28;20735;-72
2023/03/15 12:48:38;;;;;;;1.80;0.60;;;;;;;;;;5100401;28;20451;-72
2023/03/15 12:51:18;;;;;;;2.83;0.90;;;;;;;;;;5096319;28;20513;-72
2023/03/15 12:53:53;;;;;;;3.00;1.53;;;;;;;;;;5095860;28;20447;-72
2023/03/15 12:56:34;;;;;;;5.30;1.07;;;;;;;;;;5101708;28;20467;-73
2023/03/15 12:59:05;;;;;;;9.37;1.10;;;;;;;;;;5102481;28;20489;-71
2023/03/15 13:01:45;;;;;;;2.70;0.70;;;;;;;;;;5107629;28;20551;-72
2023/03/15 13:04:26;;;;;;;2.50;0.93;;;;;;;;;;5103707;28;20835;-71
2023/03/15 13:07:40;;;;;;;;;;;;;;;;;;;;;
2023/03/15 13:10:33;;;;;;;2.60;0.87;;;;;;;;;;5098885;28;20443;-72
2023/03/15 13:16:21;;;;;;;3.23;0.90;;;;;;;;;;5108080;28;20830;-72
2023/03/15 13:18:55;;;;;;;1.20;0.50;;;;;;;;;;5103828;28;20483;-72
2023/03/15 13:21:30;;;;;;;2.60;0.90;;;;;;;;;;5108475;28;20459;-73
2023/03/15 13:23:59;;;;;;;2.20;0.87;;;;;;;;;;5103123;28;20505;-73
2023/03/15 13:26:42;;;;;;;3.30;1.10;;;;;;;;;;5106483;28;21146;-74
2023/03/15 13:29:18;;;;;;;6.93;1.73;;;;;;;;;;5098754;28;20750;-72
2023/03/15 13:31:47;;;;;;;7.47;1.50;;;;;;;;;;5104484;28;20462;-74
2023/03/15 13:34:22;;;;;;;1.90;0.60;;;;;;;;;;5107059;28;20448;-72
2023/03/15 13:36:55;;;;;;;2.63;0.80;;;;;;;;;;5106878;28;20479;-72
2023/03/15 13:39:25;;;;;;;2.20;1.10;;;;;;;;;;5101733;28;20512;-72
2023/03/15 13:41:57;;;;;;;4.40;1.60;;;;;;;;;;5116428;28;20446;-72
2023/03/15 13:44:25;;;;;;;5.13;1.37;;;;;;;;;;5106119;28;20478;-72
2023/03/15 13:46:54;;;;;;;3.13;1.00;;;;;;;;;;5096676;28;20936;-73
2023/03/15 13:49:31;;;;;;;3.40;1.20;;;;;;;;;;5100561;28;20458;-73
2023/03/15 13:52:13;;;;;;;2.63;0.73;;;;;;;;;;5114246;28;20447;-73
2023/03/15 13:54:57;;;;;;;4.10;0.97;;;;;;;;;;5097586;28;21838;-74
2023/03/15 13:57:25;;;;;;;4.63;1.00;;;;;;;;;;5105418;28;20439;-74
2023/03/15 13:59:58;;;;;;;3.30;0.93;;;;;;;;;;5096848;28;20463;-73
2023/03/15 14:02:37;;;;;;;1.53;0.60;;;;;;;;;;5103461;28;20451;-73
2023/03/15 14:05:08;;;;;;;3.93;1.40;;;;;;;;;;5110985;28;20456;-73
2023/03/15 14:07:37;;;;;;;2.07;1.17;;;;;;;;;;5103725;28;20477;-73
2023/03/15 14:10:24;;;;;;;5.20;2.13;;;;;;;;;;5105635;28;20546;-73
2023/03/15 14:12:52;;;;;;;2.47;0.90;;;;;;;;;;5102946;28;20471;-73
2023/03/15 14:15:22;;;;;;;4.57;1.00;;;;;;;;;;5103387;28;20773;-73
2023/03/15 14:17:58;;;;;;;4.20;1.67;;;;;;;;;;5103454;28;20456;-73
2023/03/15 14:20:32;;;;;;;2.43;1.20;;;;;;;;;;5101045;28;20474;-73
2023/03/15 14:23:01;;;;;;;4.90;1.13;;;;;;;;;;5108944;28;20447;-73
2023/03/15 14:25:43;;;;;;;2.93;1.10;;;;;;;;;;5095131;28;20449;-73
2023/03/15 14:28:13;;;;;;;2.60;0.80;;;;;;;;;;5098297;28;20463;-73
2023/03/15 14:31:01;;;;;;;;;;;;;;;;;;;;;
2023/03/15 14:33:32;;;;;;;6.23;1.50;;;;;;;;;;5105160;28;20459;-73
2023/03/15 14:36:02;;;;;;;2.70;0.60;;;;;;;;;;5102255;28;20517;-73
2023/03/15 14:38:38;;;;;;;4.20;1.33;;;;;;;;;;5098251;28;21036;-73
2023/03/15 14:41:47;;;;;;;2.53;0.87;;;;;;;;;;5101855;28;20767;-73
2023/03/15 14:44:15;;;;;;;2.20;0.87;;;;;;;;;;5104322;28;20456;-72
2023/03/15 14:46:49;;;;;;;7.30;0.80;;;;;;;;;;5107137;28;20910;-73
2023/03/15 14:49:23;;;;;;;3.73;1.70;;;;;;;;;;5102455;28;20471;-73
2023/03/15 14:52:02;;;;;;;5.40;0.97;;;;;;;;;;5100650;28;20931;-72
2023/03/15 14:54:39;;;;;;;3.10;1.53;;;;;;;;;;5105025;28;20467;-72
2023/03/15 14:57:06;;;;;;;2.23;0.83;;;;;;;;;;5102867;28;20459;-72
2023/03/15 15:02:37;;;;;;;4.30;1.50;;;;;;;;;;5084905;28;20501;-73
2023/03/15 15:05:17;;;;;;;4.03;1.00;;;;;;;;;;5106760;28;20828;-72
2023/03/15 15:07:46;;;;;;;4.53;1.10;;;;;;;;;;5105934;28;20527;-73
2023/03/15 15:10:14;;;;;;;2.30;0.90;;;;;;;;;;5102935;28;20441;-72
2023/03/15 15:12:45;;;;;;;3.83;1.40;;;;;;;;;;5114876;28;20478;-72
2023/03/15 15:15:15;;;;;;;5.77;1.43;;;;;;;;;;5115112;28;20483;-72
2023/03/15 15:17:43;;;;;;;2.80;1.00;;;;;;;;;;5107139;28;20521;-72
2023/03/15 15:20:11;;;;;;;3.90;1.70;;;;;;;;;;5106991;28;20916;-72
2023/03/15 15:22:39;;;;;;;3.10;0.73;;;;;;;;;;5113840;28;20497;-71
2023/03/15 15:25:22;;;;;;;3.00;0.70;;;;;;;;;;5110012;28;20466;-71
2023/03/15 15:27:59;;;;;;;3.23;0.93;;;;;;;;;;5112378;28;20493;-71
2023/03/15 15:30:28;;;;;;;3.23;0.97;;;;;;;;;;5099989;28;20581;-72
2023/03/15 15:32:57;;;;;;;2.20;0.80;;;;;;;;;;5104489;28;20502;-72
2023/03/15 15:35:27;;;;;;;7.73;2.17;;;;;;;;;;5099270;28;20463;-73
2023/03/15 15:38:01;;;;;;;4.53;2.07;;;;;;;;;;5111629;28;20442;-73
2023/03/15 15:40:34;;;;;;;2.00;0.90;;;;;;;;;;5115739;28;20454;-73
2023/03/15 15:43:27;;;;;;;4.07;1.17;;;;;;;;;;5108550;28;20481;-73
2023/03/15 15:46:06;;;;;;;5.97;2.00;;;;;;;;;;5098782;28;20455;-70
2023/03/15 15:48:50;;;;;;;14.03;2.63;;;;;;;;;;5109736;28;20497;-71
2023/03/15 15:51:44;;;;;;;;;;;;;;;;;;;;;
2023/03/15 15:54:15;;;;;;;2.40;1.20;;;;;;;;;;5097482;28;20466;-71
2023/03/15 15:56:48;;;;;;;7.13;2.10;;;;;;;;;;5101380;28;20487;-71
2023/03/15 15:59:17;;;;;;;5.90;1.37;;;;;;;;;;5102159;28;20635;-71